createdAt,value
2023-03-29T00:01:34.915Z,42.31
2023-03-29T00:04:04.553Z,42.49
2023-03-29T00:06:33.191Z,42.85
2023-03-29T00:09:00.499Z,42.64
2023-03-29T00:11:27.447Z,42.48
2023-03-29T00:13:54.606Z,42.60
2023-03-29T00:16:21.407Z,42.40
2023-03-29T00:18:48.510Z,42.35
2023-03-29T00:21:15.282Z,42.71
2023-03-29T00:23:42.446Z,42.85
2023-03-29T00:26:09.406Z,42.46
2023-03-29T00:28:36.459Z,42.80
2023-03-29T00:31:07.473Z,42.67
2023-03-29T00:33:34.668Z,42.66
2023-03-29T00:36:02.033Z,43.01
2023-03-29T00:38:29.239Z,42.98
2023-03-29T00:40:56.054Z,42.75
2023-03-29T00:43:23.181Z,42.97
2023-03-29T00:45:50.004Z,42.52
2023-03-29T00:48:18.665Z,42.64
2023-03-29T00:50:48.611Z,42.77
2023-03-29T00:53:30.849Z,42.91
2023-03-29T00:56:29.916Z,42.90
2023-03-29T00:59:07.209Z,42.78
2023-03-29T01:01:42.501Z,42.71
2023-03-29T01:04:18.017Z,42.78
2023-03-29T01:06:57.167Z,43.24
2023-03-29T01:09:24.288Z,42.83
2023-03-29T01:11:52.844Z,42.77
2023-03-29T01:14:26.597Z,42.77
2023-03-29T01:16:53.415Z,43.01
2023-03-29T01:19:21.495Z,42.96
2023-03-29T01:22:03.874Z,42.68
2023-03-29T01:24:37.999Z,42.48
2023-03-29T01:27:22.857Z,42.89
2023-03-29T01:30:00.328Z,42.87
2023-03-29T01:32:31.318Z,42.75
2023-03-29T01:35:10.410Z,42.96
2023-03-29T01:37:42.530Z,43.04
2023-03-29T01:40:10.041Z,43.05
2023-03-29T01:42:41.201Z,43.36
2023-03-29T01:45:16.997Z,43.13
2023-03-29T01:47:49.759Z,43.07
2023-03-29T01:50:32.285Z,43.25
2023-03-29T01:53:09.832Z,42.92
2023-03-29T01:55:39.452Z,43.22
2023-03-29T01:58:07.354Z,43.30
2023-03-29T02:00:34.855Z,43.37
2023-03-29T02:03:05.079Z,43.15
2023-03-29T02:05:32.255Z,43.02
2023-03-29T02:08:00.261Z,43.44
2023-03-29T02:10:27.468Z,43.76
2023-03-29T02:12:54.218Z,43.14
2023-03-29T02:15:21.591Z,43.26
2023-03-29T02:17:49.342Z,43.19
2023-03-29T02:20:22.819Z,43.25
2023-03-29T02:23:12.351Z,43.14
2023-03-29T02:25:39.463Z,43.61
2023-03-29T02:28:06.796Z,43.18
2023-03-29T02:30:55.161Z,43.04
2023-03-29T02:33:27.966Z,43.35
2023-03-29T02:35:59.201Z,43.17
2023-03-29T02:38:26.430Z,43.54
2023-03-29T02:40:55.307Z,43.44
2023-03-29T02:43:23.831Z,43.13
2023-03-29T02:45:52.490Z,43.51
2023-03-29T02:48:22.060Z,43.30
2023-03-29T02:50:51.287Z,43.50
2023-03-29T02:53:20.059Z,43.06
2023-03-29T02:55:47.116Z,43.61
2023-03-29T02:58:15.406Z,43.48
2023-03-29T03:00:45.337Z,43.56
2023-03-29T03:03:12.574Z,43.54
2023-03-29T03:05:39.774Z,43.59
2023-03-29T03:08:07.474Z,43.74
2023-03-29T03:10:35.471Z,43.50
2023-03-29T03:13:02.404Z,43.35
2023-03-29T03:15:31.141Z,43.51
2023-03-29T03:17:58.049Z,43.28
2023-03-29T03:20:26.587Z,43.44
2023-03-29T03:22:53.423Z,43.42
2023-03-29T03:25:22.147Z,43.22
2023-03-29T03:27:49.746Z,43.61
2023-03-29T03:30:17.011Z,43.78
2023-03-29T03:32:44.746Z,43.72
2023-03-29T03:35:12.357Z,43.76
2023-03-29T03:37:39.292Z,43.63
2023-03-29T03:40:12.074Z,43.95
2023-03-29T03:42:41.783Z,43.81
2023-03-29T03:45:09.780Z,43.63
2023-03-29T03:47:39.696Z,44.06
2023-03-29T03:50:07.565Z,43.82
2023-03-29T03:52:34.535Z,43.79
2023-03-29T03:55:03.462Z,44.39
2023-03-29T03:57:30.249Z,43.79
2023-03-29T03:59:57.574Z,44.17
2023-03-29T04:02:24.397Z,44.21
2023-03-29T04:04:51.582Z,44.11
2023-03-29T04:07:18.498Z,44.17
2023-03-29T04:09:45.928Z,44.10
2023-03-29T04:12:12.720Z,43.92
2023-03-29T04:14:40.412Z,44.06
2023-03-29T04:17:07.132Z,44.31
2023-03-29T04:19:34.706Z,44.74
2023-03-29T04:22:01.482Z,44.92
2023-03-29T04:24:28.540Z,44.81
2023-03-29T04:26:55.514Z,44.77
2023-03-29T04:29:22.600Z,47.88
2023-03-29T04:31:49.466Z,49.71
2023-03-29T04:34:16.952Z,51.10
2023-03-29T04:36:44.056Z,49.53
2023-03-29T04:39:11.169Z,48.74
2023-03-29T04:41:37.908Z,48.26
2023-03-29T04:44:05.211Z,48.73
2023-03-29T04:46:32.499Z,48.33
2023-03-29T04:48:59.963Z,48.08
2023-03-29T04:51:27.537Z,47.50
2023-03-29T04:53:54.618Z,47.49
2023-03-29T04:56:23.089Z,46.81
2023-03-29T04:58:50.989Z,46.75
2023-03-29T05:01:18.082Z,46.91
2023-03-29T05:03:45.195Z,46.41
2023-03-29T05:06:12.156Z,45.94
2023-03-29T05:08:39.525Z,46.15
2023-03-29T05:11:10.376Z,46.08
2023-03-29T05:13:37.649Z,46.38
2023-03-29T05:16:04.629Z,46.26
2023-03-29T05:18:31.938Z,46.07
2023-03-29T05:20:59.567Z,46.09
2023-03-29T05:23:27.119Z,46.12
2023-03-29T05:25:54.088Z,45.69
2023-03-29T05:28:21.620Z,46.03
2023-03-29T05:31:04.563Z,45.97
2023-03-29T05:33:31.973Z,45.76
2023-03-29T05:36:10.889Z,45.59
2023-03-29T05:38:38.220Z,45.45
2023-03-29T05:41:06.734Z,45.53
2023-03-29T05:43:33.840Z,45.60
2023-03-29T05:46:00.864Z,45.87
2023-03-29T05:48:28.770Z,45.21
2023-03-29T05:50:56.369Z,45.20
2023-03-29T05:53:24.220Z,45.23
2023-03-29T05:55:51.584Z,45.49
2023-03-29T05:58:19.321Z,45.36
2023-03-29T06:00:46.652Z,45.24
2023-03-29T06:03:21.301Z,45.25
2023-03-29T06:05:49.972Z,45.07
2023-03-29T06:08:17.066Z,45.14
2023-03-29T06:10:43.898Z,45.08
2023-03-29T06:13:11.921Z,45.22
2023-03-29T06:15:38.689Z,44.99
2023-03-29T06:18:06.140Z,44.74
2023-03-29T06:20:33.269Z,44.76
2023-03-29T06:23:00.402Z,44.43
2023-03-29T06:25:27.211Z,44.57
2023-03-29T06:27:54.342Z,44.10
2023-03-29T06:30:21.110Z,44.31
2023-03-29T06:32:50.551Z,44.41
2023-03-29T06:35:17.597Z,44.34
2023-03-29T06:37:50.057Z,44.06
2023-03-29T06:40:19.013Z,43.95
2023-03-29T06:42:47.732Z,43.88
2023-03-29T06:45:14.688Z,44.02
2023-03-29T06:47:42.090Z,43.69
2023-03-29T06:50:09.302Z,44.03
2023-03-29T06:52:36.812Z,43.58
2023-03-29T06:55:07.608Z,43.66
2023-03-29T06:57:34.713Z,43.70
2023-03-29T07:00:01.667Z,43.17
2023-03-29T07:02:29.082Z,43.52
2023-03-29T07:04:56.276Z,43.61
2023-03-29T07:07:27.558Z,43.12
2023-03-29T07:09:55.501Z,43.05
2023-03-29T07:12:23.044Z,43.43
2023-03-29T07:14:49.889Z,43.20
2023-03-29T07:17:16.958Z,43.12
2023-03-29T07:19:43.905Z,42.92
2023-03-29T07:22:11.347Z,43.17
2023-03-29T07:24:38.116Z,42.89
2023-03-29T07:27:05.311Z,42.86
2023-03-29T07:29:32.338Z,42.69
2023-03-29T07:31:59.363Z,42.67
2023-03-29T07:34:27.237Z,42.75
2023-03-29T07:36:54.661Z,42.37
2023-03-29T07:39:22.360Z,42.36
2023-03-29T07:41:49.430Z,42.63
2023-03-29T07:44:19.369Z,42.38
2023-03-29T07:46:46.477Z,42.48
2023-03-29T07:49:13.191Z,42.52
2023-03-29T07:52:12.930Z,42.48
2023-03-29T07:54:39.791Z,42.15
2023-03-29T07:57:06.926Z,41.83
2023-03-29T07:59:36.805Z,42.00
2023-03-29T08:02:03.861Z,42.06
2023-03-29T08:04:31.023Z,41.90
2023-03-29T08:06:58.345Z,41.77
2023-03-29T08:09:25.977Z,41.42
2023-03-29T08:11:53.538Z,41.61
2023-03-29T08:14:29.620Z,41.50
2023-03-29T08:17:04.532Z,41.54
2023-03-29T08:19:32.329Z,41.35
2023-03-29T08:22:27.132Z,40.84
2023-03-29T08:25:00.786Z,41.25
2023-03-29T08:27:35.640Z,41.12
2023-03-29T08:30:14.861Z,40.89
2023-03-29T08:32:42.273Z,40.96
2023-03-29T08:35:09.999Z,40.76
2023-03-29T08:37:38.112Z,40.72
2023-03-29T08:40:05.762Z,40.50
2023-03-29T08:42:51.365Z,40.79
2023-03-29T08:45:24.435Z,40.64
2023-03-29T08:48:04.942Z,40.38
2023-03-29T08:50:58.575Z,40.39
2023-03-29T08:53:33.263Z,40.32
2023-03-29T08:56:00.397Z,40.18
2023-03-29T08:58:29.166Z,39.89
2023-03-29T09:01:00.234Z,40.01
2023-03-29T09:04:09.067Z,39.89
2023-03-29T09:09:58.468Z,39.45
2023-03-29T09:12:56.500Z,39.41
2023-03-29T09:15:31.755Z,39.55
2023-03-29T09:17:58.501Z,39.47
2023-03-29T09:20:44.044Z,39.02
2023-03-29T09:23:19.632Z,38.92
2023-03-29T09:26:04.927Z,39.02
2023-03-29T09:28:39.000Z,38.94
2023-03-29T09:31:07.891Z,38.76
2023-03-29T09:33:45.024Z,38.51
2023-03-29T09:36:54.238Z,38.25
2023-03-29T09:39:21.250Z,38.44
2023-03-29T09:41:57.395Z,38.45
2023-03-29T09:44:31.381Z,38.32
2023-03-29T09:47:28.150Z,38.17
2023-03-29T09:50:01.830Z,38.24
2023-03-29T09:52:37.133Z,37.88
2023-03-29T09:55:30.470Z,37.34
2023-03-29T09:58:01.659Z,37.73
2023-03-29T10:00:28.511Z,37.60
2023-03-29T10:03:28.502Z,37.54
2023-03-29T10:09:02.977Z,37.33
2023-03-29T10:11:34.751Z,37.21
2023-03-29T10:14:16.850Z,37.41
2023-03-29T10:16:47.692Z,37.04
2023-03-29T10:19:46.230Z,36.71
2023-03-29T10:22:23.127Z,36.63
2023-03-29T10:24:51.455Z,36.71
2023-03-29T10:27:27.049Z,36.40
2023-03-29T10:29:54.087Z,36.43
2023-03-29T10:32:27.777Z,36.52
2023-03-29T10:34:54.663Z,36.37
2023-03-29T10:37:31.242Z,36.62
2023-03-29T10:39:58.210Z,36.50
2023-03-29T10:42:25.308Z,36.61
2023-03-29T10:44:57.014Z,36.31
2023-03-29T10:47:24.410Z,36.27
2023-03-29T10:49:57.105Z,36.54
2023-03-29T10:52:24.748Z,36.34
2023-03-29T10:54:52.348Z,36.26
2023-03-29T10:57:33.763Z,36.16
2023-03-29T11:00:11.163Z,35.95
2023-03-29T11:02:58.547Z,36.25
2023-03-29T11:05:28.381Z,36.04
2023-03-29T11:08:23.535Z,36.09
2023-03-29T11:11:08.851Z,36.38
2023-03-29T11:13:48.905Z,36.07
2023-03-29T11:16:30.926Z,36.13
2023-03-29T11:18:58.022Z,35.93
2023-03-29T11:21:31.381Z,35.92
2023-03-29T11:24:27.663Z,35.55
2023-03-29T11:27:16.013Z,35.87
2023-03-29T11:29:58.597Z,35.90
2023-03-29T11:32:37.346Z,35.59
2023-03-29T11:35:19.189Z,36.18
2023-03-29T11:37:55.476Z,35.83
2023-03-29T11:40:44.702Z,35.51
2023-03-29T11:43:27.966Z,35.44
2023-03-29T11:46:07.574Z,35.68
2023-03-29T11:48:36.610Z,35.47
2023-03-29T11:51:06.844Z,35.45
2023-03-29T11:53:42.712Z,35.19
2023-03-29T11:56:50.471Z,35.68
2023-03-29T11:59:55.436Z,35.14
2023-03-29T12:02:53.341Z,35.12
2023-03-29T12:05:21.615Z,35.84
2023-03-29T12:08:06.763Z,35.98
2023-03-29T12:11:23.003Z,34.98
2023-03-29T12:15:17.671Z,35.05
2023-03-29T12:17:55.135Z,35.16
2023-03-29T12:20:33.033Z,35.05
2023-03-29T12:23:00.785Z,35.13
2023-03-29T12:25:45.562Z,34.79
2023-03-29T12:28:34.710Z,35.13
2023-03-29T12:31:24.722Z,34.82
2023-03-29T12:33:51.817Z,34.89
2023-03-29T12:36:36.987Z,35.10
2023-03-29T12:40:43.457Z,35.06
2023-03-29T12:43:39.184Z,34.76
2023-03-29T12:46:38.307Z,34.86
2023-03-29T12:49:12.752Z,34.89
2023-03-29T12:51:43.547Z,34.32
2023-03-29T12:54:37.478Z,34.62
2023-03-29T12:57:28.159Z,34.68
2023-03-29T12:59:55.053Z,34.22
2023-03-29T13:02:22.158Z,34.60
2023-03-29T13:04:51.227Z,33.90
2023-03-29T13:07:24.258Z,33.76
2023-03-29T13:09:54.159Z,34.11
2023-03-29T13:12:23.051Z,34.29
2023-03-29T13:14:57.751Z,33.96
2023-03-29T13:17:27.300Z,34.04
2023-03-29T13:20:18.184Z,33.98
2023-03-29T13:22:52.501Z,33.83
2023-03-29T13:25:55.940Z,34.30
2023-03-29T13:28:29.578Z,34.13
2023-03-29T13:31:00.094Z,34.14
2023-03-29T13:33:49.120Z,34.17
2023-03-29T13:36:21.282Z,34.15
2023-03-29T13:38:49.989Z,33.80
2023-03-29T13:41:38.198Z,33.46
2023-03-29T13:44:16.894Z,33.48
2023-03-29T13:46:44.038Z,33.28
2023-03-29T13:49:24.319Z,33.83
2023-03-29T13:51:54.385Z,33.60
2023-03-29T13:54:38.411Z,33.96
2023-03-29T13:57:13.965Z,33.97
2023-03-29T14:00:12.337Z,33.61
2023-03-29T14:02:56.322Z,33.46
2023-03-29T14:05:26.147Z,33.79
2023-03-29T14:07:53.598Z,34.05
2023-03-29T14:10:39.628Z,34.32
2023-03-29T14:13:06.526Z,33.68
2023-03-29T14:15:49.457Z,33.62
2023-03-29T14:18:21.822Z,33.92
2023-03-29T14:20:50.705Z,34.24
2023-03-29T14:23:20.213Z,33.45
2023-03-29T14:25:47.333Z,33.59
2023-03-29T14:28:24.133Z,33.86
2023-03-29T14:30:52.814Z,33.93
2023-03-29T14:33:29.110Z,33.86
2023-03-29T14:35:56.408Z,33.43
2023-03-29T14:38:23.527Z,34.08
2023-03-29T14:40:50.936Z,33.95
2023-03-29T14:43:19.436Z,34.19
2023-03-29T14:45:46.648Z,34.25
2023-03-29T14:48:13.592Z,33.99
2023-03-29T14:50:41.112Z,34.04
2023-03-29T14:53:08.422Z,33.84
2023-03-29T14:55:36.705Z,33.20
2023-03-29T14:58:04.377Z,33.81
2023-03-29T15:00:38.873Z,34.60
2023-03-29T15:03:13.146Z,34.06
2023-03-29T15:05:41.446Z,35.02
2023-03-29T15:08:50.842Z,34.74
2023-03-29T15:11:31.712Z,34.12
2023-03-29T15:14:04.001Z,34.88
2023-03-29T15:16:31.359Z,35.03
2023-03-29T15:18:58.333Z,34.73
2023-03-29T15:21:26.214Z,33.90
2023-03-29T15:23:57.311Z,34.66
2023-03-29T15:26:30.987Z,34.51
2023-03-29T15:29:17.049Z,34.50
2023-03-29T15:31:54.099Z,33.70
2023-03-29T15:34:28.563Z,33.95
2023-03-29T15:36:57.829Z,34.13
2023-03-29T15:39:56.778Z,34.48
2023-03-29T15:42:54.594Z,34.87
2023-03-29T15:45:53.705Z,34.75
2023-03-29T15:48:23.565Z,34.56
2023-03-29T15:51:42.860Z,34.44
2023-03-29T15:54:10.051Z,34.62
2023-03-29T15:56:43.535Z,34.58
2023-03-29T15:59:11.757Z,34.70
2023-03-29T16:01:42.550Z,33.73
2023-03-29T16:04:19.715Z,34.19
2023-03-29T16:06:48.856Z,34.01
2023-03-29T16:09:17.042Z,34.76
2023-03-29T16:11:45.146Z,34.73
2023-03-29T16:14:27.096Z,33.80
2023-03-29T16:17:00.391Z,33.07
2023-03-29T16:19:27.966Z,33.52
2023-03-29T16:21:55.786Z,33.82
2023-03-29T16:24:24.701Z,34.21
2023-03-29T16:27:47.756Z,34.14
2023-03-29T16:30:15.109Z,34.06
2023-03-29T16:32:42.116Z,34.24
2023-03-29T16:35:29.581Z,34.57
2023-03-29T16:37:56.473Z,34.70
2023-03-29T16:40:24.011Z,34.69
2023-03-29T16:42:51.458Z,34.76
2023-03-29T16:45:18.966Z,34.51
2023-03-29T16:47:45.921Z,34.89
2023-03-29T16:50:14.397Z,34.57
2023-03-29T16:52:41.685Z,34.60
2023-03-29T16:55:12.162Z,33.91
2023-03-29T16:57:40.141Z,34.76
2023-03-29T17:00:08.779Z,34.70
2023-03-29T17:02:35.669Z,34.61
2023-03-29T17:05:03.269Z,34.80
2023-03-29T17:07:30.282Z,33.93
2023-03-29T17:09:57.396Z,34.32
2023-03-29T17:12:24.161Z,33.90
2023-03-29T17:14:51.261Z,32.91
2023-03-29T17:17:18.747Z,34.87
2023-03-29T17:19:45.916Z,33.86
2023-03-29T17:22:12.692Z,33.32
2023-03-29T17:24:39.808Z,33.58
2023-03-29T17:27:06.700Z,32.83
2023-03-29T17:29:33.847Z,33.93
2023-03-29T17:32:00.998Z,34.55
2023-03-29T17:34:29.136Z,34.29
2023-03-29T17:36:56.312Z,33.80
2023-03-29T17:39:25.172Z,34.79
2023-03-29T17:41:52.553Z,33.36
2023-03-29T17:44:19.922Z,32.94
2023-03-29T17:46:46.731Z,33.82
2023-03-29T17:49:14.794Z,32.66
2023-03-29T17:51:41.664Z,32.30
2023-03-29T17:54:08.832Z,32.58
2023-03-29T17:56:35.789Z,33.34
2023-03-29T17:59:02.944Z,33.45
2023-03-29T18:01:29.736Z,33.04
2023-03-29T18:03:56.978Z,33.17
2023-03-29T18:06:23.827Z,32.92
2023-03-29T18:08:53.138Z,33.44
2023-03-29T18:11:22.949Z,33.74
2023-03-29T18:13:51.083Z,33.86
2023-03-29T18:16:18.624Z,33.31
2023-03-29T18:18:46.394Z,33.53
2023-03-29T18:21:14.302Z,33.85
2023-03-29T18:23:47.251Z,33.95
2023-03-29T18:26:15.012Z,33.84
2023-03-29T18:28:42.363Z,34.53
2023-03-29T18:31:09.402Z,34.34
2023-03-29T18:33:36.649Z,33.70
2023-03-29T18:36:10.685Z,34.47
2023-03-29T18:38:40.489Z,34.75
2023-03-29T18:41:08.645Z,34.51
2023-03-29T18:43:36.027Z,34.54
2023-03-29T18:46:03.258Z,34.76
2023-03-29T18:48:31.166Z,34.56
2023-03-29T18:50:58.237Z,34.89
2023-03-29T18:53:26.351Z,34.84
2023-03-29T18:55:53.149Z,34.77
2023-03-29T18:58:23.996Z,34.71
2023-03-29T19:00:51.618Z,34.77
2023-03-29T19:03:18.981Z,34.80
2023-03-29T19:05:46.346Z,34.76
2023-03-29T19:08:13.581Z,34.88
2023-03-29T19:10:40.750Z,34.91
2023-03-29T19:13:08.070Z,34.97
2023-03-29T19:15:35.168Z,34.92
2023-03-29T19:18:02.751Z,35.13
2023-03-29T19:20:30.370Z,34.96
2023-03-29T19:22:57.791Z,35.09
2023-03-29T19:25:24.652Z,35.17
2023-03-29T19:27:51.827Z,35.47
2023-03-29T19:30:20.213Z,35.45
2023-03-29T19:32:48.302Z,35.31
2023-03-29T19:35:15.804Z,35.43
2023-03-29T19:37:42.968Z,35.35
2023-03-29T19:40:11.277Z,35.46
2023-03-29T19:42:38.655Z,35.57
2023-03-29T19:45:06.670Z,35.55
2023-03-29T19:47:34.279Z,35.43
2023-03-29T19:50:01.380Z,35.45
2023-03-29T19:52:28.719Z,35.66
2023-03-29T19:54:56.449Z,35.55
2023-03-29T19:57:23.993Z,35.56
2023-03-29T19:59:53.087Z,35.57
2023-03-29T20:02:20.266Z,35.77
2023-03-29T20:04:47.060Z,35.86
2023-03-29T20:07:14.417Z,35.72
2023-03-29T20:09:44.621Z,35.55
2023-03-29T20:12:12.560Z,35.76
2023-03-29T20:14:40.291Z,35.51
2023-03-29T20:17:07.777Z,35.96
2023-03-29T20:19:36.815Z,35.81
2023-03-29T20:22:04.223Z,36.05
2023-03-29T20:24:32.591Z,36.01
2023-03-29T20:26:59.835Z,36.00
2023-03-29T20:29:27.727Z,36.13
2023-03-29T20:31:54.903Z,36.25
2023-03-29T20:34:22.407Z,35.91
2023-03-29T20:36:49.691Z,36.37
2023-03-29T20:39:18.811Z,36.32
2023-03-29T20:41:50.694Z,36.10
2023-03-29T20:44:17.652Z,36.00
2023-03-29T20:47:02.202Z,36.46
2023-03-29T20:49:38.087Z,36.38
2023-03-29T20:52:15.946Z,36.35
2023-03-29T20:54:43.395Z,36.56
2023-03-29T20:57:14.061Z,36.38
2023-03-29T20:59:41.664Z,36.24
2023-03-29T21:02:11.976Z,36.45
2023-03-29T21:04:38.821Z,36.35
2023-03-29T21:07:06.493Z,36.67
2023-03-29T21:09:35.517Z,36.73
2023-03-29T21:12:02.805Z,36.61
2023-03-29T21:14:30.467Z,36.50
2023-03-29T21:16:57.841Z,36.57
2023-03-29T21:19:24.786Z,36.62
2023-03-29T21:21:52.318Z,36.81
2023-03-29T21:24:19.236Z,36.49
2023-03-29T21:26:46.617Z,36.89
2023-03-29T21:29:13.714Z,36.94
2023-03-29T21:31:41.167Z,36.74
2023-03-29T21:34:08.211Z,36.79
2023-03-29T21:36:35.790Z,36.81
2023-03-29T21:39:02.755Z,36.57
2023-03-29T21:41:29.996Z,36.82
2023-03-29T21:43:56.936Z,37.06
2023-03-29T21:46:25.873Z,36.79
2023-03-29T21:48:52.852Z,36.63
2023-03-29T21:51:20.130Z,36.79
2023-03-29T21:53:47.342Z,36.71
2023-03-29T21:56:14.989Z,36.93
2023-03-29T21:58:42.007Z,37.08
2023-03-29T22:01:10.525Z,36.82
2023-03-29T22:03:37.980Z,36.76
2023-03-29T22:06:09.978Z,36.90
2023-03-29T22:08:38.992Z,37.07
2023-03-29T22:11:09.425Z,36.92
2023-03-29T22:13:36.777Z,36.89
2023-03-29T22:16:04.403Z,37.04
2023-03-29T22:18:42.485Z,36.86
2023-03-29T22:21:14.596Z,37.12
2023-03-29T22:23:42.515Z,37.19
2023-03-29T22:26:11.151Z,37.15
2023-03-29T22:28:38.254Z,37.33
2023-03-29T22:31:07.294Z,37.54
2023-03-29T22:33:34.420Z,37.33
2023-03-29T22:36:02.105Z,37.32
2023-03-29T22:38:29.273Z,37.26
2023-03-29T22:40:56.499Z,37.32
2023-03-29T22:43:23.456Z,37.33
2023-03-29T22:45:50.777Z,37.48
2023-03-29T22:48:17.801Z,37.45
2023-03-29T22:50:48.155Z,37.60
2023-03-29T22:53:15.245Z,37.68
2023-03-29T22:55:43.920Z,37.58
2023-03-29T22:58:10.834Z,37.68
2023-03-29T23:00:38.031Z,37.64
2023-03-29T23:03:04.979Z,38.10
2023-03-29T23:05:32.536Z,37.95
2023-03-29T23:07:59.455Z,37.94
2023-03-29T23:10:29.013Z,38.03
2023-03-29T23:13:12.869Z,38.13
2023-03-29T23:15:45.719Z,38.23
2023-03-29T23:18:15.465Z,38.23
2023-03-29T23:20:42.764Z,38.46
2023-03-29T23:23:09.648Z,38.25
2023-03-29T23:25:36.943Z,38.45
2023-03-29T23:28:03.925Z,38.65
2023-03-29T23:30:31.665Z,38.59
2023-03-29T23:33:00.285Z,38.45
2023-03-29T23:35:27.551Z,38.44
2023-03-29T23:37:54.515Z,38.70
2023-03-29T23:40:21.996Z,38.59
2023-03-29T23:42:48.972Z,38.74
2023-03-29T23:45:18.327Z,38.89
2023-03-29T23:47:45.569Z,38.80
2023-03-29T23:50:13.742Z,38.72
2023-03-29T23:52:41.231Z,38.89
2023-03-29T23:55:10.063Z,38.79
2023-03-29T23:57:37.195Z,38.98
